Startpagina
METAR-TAF:

METAR-TAF

Vliegvelden :

Djibouti, Djibouti

Luchthaven Ambouli Internationaal

breedte: 11-33N, lengte: 043-10E, hoogte: 49 m

Actueel weer

Dit bericht is 12 uur en het 48 minuten geleden gemaakt, om 15:00 UTC
Wind 10 kt uit het oosten
Temperatuur 28°C
Vochtigheid 70%
Druk 1012 hPa
Zicht 10 km of meer
Verspreide wolken op 2300 ft

METAR: HDAM 211500Z 10010KT 9999 SCT023 28/22 Q1012

Tijdstip: 06:48 (03:48 UTC)

Verwachting

Dit bericht is 10 uur en het 48 minuten geleden gemaakt, om 17:00 UTC
Verwachting geldig van 21 om 18 UTC tot 22 om 18 UTC
Wind 3 kt uit variabele richting
Zicht 10 km of meer
Verspreide wolken op 2000 ft
Verspreide wolken op 3000 ft
Wijzigt naar
van 22 om 03 UTC tot 22 om 06 UTC
Verspreide wolken op 1800 ft
Verspreide wolken op 2000 ft
regenbuien
Wijzigt naar
van 22 om 06 UTC tot 22 om 12 UTC
Wind 10 kt uit het oosten
Verspreide wolken op 2300 ft

TAF: HDAM 211700Z 2118/2218 VRB03KT 9999 SCT020 SCT030 BECMG 2203/2206 SHRA SCT018 SCT020 BECMG 2206/2212 08010KT SCT023

Waarnemingen en weersverwachtingen van meer dan 4000 vliegvelden (METAR en TAF).

De beschikbare stations zijn de gele en rode punten op de kaart.

Ga met uw muis naar het station om de naam te zien.

Klik dan om waarnemingen en weersverwachtingen te zien.

kaart wijzigen: klik op de groene knoppen met een zwart kruis om in te zoomen, op de groene knop met een streepje om uit te zoomen of op de groene pijlen voor aangrenzende kaarten.


METAR-TAF: